Time;durP1;ratioP1;P1;durP2;ratioP2;P2;SDS_P1;SDS_P2;PMS_P1;PMS_P2;Temp;Humidity;BMP_temperature;BMP_pressure;BME280_temperature;BME280_humidity;BME280_pressure;Samples;Min_cycle;Max_cycle;Signal;HPM_P1;HPM_P2
2022/01/24 00:01:12;;;;;;;7.07;5.63;;;;;;;;;;5113427;28;20035;-76
2022/01/24 00:03:38;;;;;;;6.80;4.78;;;;;;;;;;5113652;28;20030;-73
2022/01/24 00:06:06;;;;;;;7.18;5.15;;;;;;;;;;5113592;28;20027;-72
2022/01/24 00:08:32;;;;;;;5.88;4.68;;;;;;;;;;5113863;28;20039;-75
2022/01/24 00:11:05;;;;;;;6.45;4.95;;;;;;;;;;5114163;28;20034;-77
2022/01/24 00:26:55;;;;;;;7.05;4.93;;;;;;;;;;5113593;28;20494;-78
2022/01/24 00:29:23;;;;;;;8.77;4.80;;;;;;;;;;5113203;28;20046;-78
2022/01/24 00:31:49;;;;;;;6.85;5.55;;;;;;;;;;5113176;28;20429;-78
2022/01/24 00:34:16;;;;;;;6.93;4.53;;;;;;;;;;5112991;28;20024;-79
2022/01/24 00:36:46;;;;;;;5.38;4.38;;;;;;;;;;5113368;28;20023;-79
2022/01/24 00:39:12;;;;;;;6.68;5.18;;;;;;;;;;5112998;28;20467;-78
2022/01/24 00:47:11;;;;;;;6.50;5.00;;;;;;;;;;5112562;28;20403;-77
2022/01/24 00:54:57;;;;;;;6.88;4.97;;;;;;;;;;5113120;28;20038;-78
2022/01/24 00:57:23;;;;;;;5.35;4.47;;;;;;;;;;5112514;28;20023;-78
2022/01/24 00:59:50;;;;;;;6.47;5.03;;;;;;;;;;5112864;28;20030;-77
2022/01/24 01:02:16;;;;;;;6.40;4.60;;;;;;;;;;5112481;28;20027;-78
2022/01/24 01:07:11;;;;;;;5.93;4.80;;;;;;;;;;5112221;28;20032;-78
2022/01/24 01:20:57;;;;;;;5.75;4.38;;;;;;;;;;5112394;28;20036;-79
2022/01/24 01:23:22;;;;;;;5.20;4.57;;;;;;;;;;5111909;28;20624;-76
2022/01/24 01:25:50;;;;;;;6.47;5.03;;;;;;;;;;5112319;28;20395;-75
2022/01/24 01:28:17;;;;;;;6.13;4.63;;;;;;;;;;5111710;28;20111;-77
2022/01/24 01:30:47;;;;;;;6.32;4.82;;;;;;;;;;5111459;28;20062;-78
2022/01/24 01:33:31;;;;;;;5.15;4.28;;;;;;;;;;5111869;28;20046;-75
2022/01/24 01:36:12;;;;;;;6.47;4.93;;;;;;;;;;5112602;28;20020;-73
2022/01/24 01:52:48;;;;;;;6.22;4.55;;;;;;;;;;5091320;28;20093;-72
2022/01/24 01:55:26;;;;;;;5.20;3.75;;;;;;;;;;5088491;28;20098;-72
2022/01/24 01:57:52;;;;;;;5.70;4.22;;;;;;;;;;5091486;28;20143;-78
2022/01/24 02:00:18;;;;;;;6.30;4.63;;;;;;;;;;5091093;28;20020;-78
2022/01/24 02:02:44;;;;;;;5.15;4.10;;;;;;;;;;5091307;28;20162;-77
2022/01/24 02:05:10;;;;;;;5.80;4.53;;;;;;;;;;5091308;28;20039;-77
2022/01/24 02:07:47;;;;;;;5.57;4.63;;;;;;;;;;5091290;28;20032;-74
2022/01/24 02:10:13;;;;;;;5.88;4.53;;;;;;;;;;5091103;28;20050;-77
2022/01/24 02:12:39;;;;;;;5.13;3.45;;;;;;;;;;5091337;28;20028;-76
2022/01/24 02:15:05;;;;;;;5.65;4.40;;;;;;;;;;5091001;28;20020;-77
2022/01/24 02:22:49;;;;;;;6.72;4.25;;;;;;;;;;5111538;28;20111;-72
2022/01/24 02:25:25;;;;;;;6.07;3.90;;;;;;;;;;5093109;28;20015;-73
2022/01/24 02:27:57;;;;;;;5.80;4.35;;;;;;;;;;5093224;28;20044;-73
2022/01/24 02:30:40;;;;;;;5.72;3.90;;;;;;;;;;5092986;28;20027;-73
2022/01/24 02:33:08;;;;;;;4.28;3.45;;;;;;;;;;5111491;28;20039;-73
2022/01/24 02:35:34;;;;;;;6.05;4.43;;;;;;;;;;5111553;28;20502;-74
2022/01/24 02:38:04;;;;;;;5.72;4.25;;;;;;;;;;5111679;28;20073;-73
2022/01/24 02:40:30;;;;;;;5.00;3.88;;;;;;;;;;5112765;28;20023;-78
2022/01/24 02:48:30;;;;;;;5.95;3.95;;;;;;;;;;5115125;28;20078;-76
2022/01/24 02:53:29;;;;;;;5.18;3.97;;;;;;;;;;5115381;28;20024;-77
2022/01/24 02:55:55;;;;;;;5.25;3.97;;;;;;;;;;5114454;28;20032;-79
2022/01/24 02:58:21;;;;;;;5.88;4.28;;;;;;;;;;5114934;28;20029;-77
2022/01/24 03:00:48;;;;;;;5.15;3.80;;;;;;;;;;5115093;28;20015;-77
2022/01/24 03:03:14;;;;;;;5.43;4.00;;;;;;;;;;5114495;28;20069;-75
2022/01/24 03:05:40;;;;;;;5.53;4.03;;;;;;;;;;5115095;28;20023;-73
2022/01/24 03:08:07;;;;;;;5.72;4.18;;;;;;;;;;5114771;28;20039;-73
2022/01/24 03:10:40;;;;;;;5.38;4.50;;;;;;;;;;5114938;28;20487;-73
2022/01/24 03:15:51;;;;;;;5.57;4.32;;;;;;;;;;5114542;28;20548;-73
2022/01/24 03:18:18;;;;;;;4.65;3.50;;;;;;;;;;5114586;28;20051;-73
2022/01/24 03:20:45;;;;;;;5.35;3.80;;;;;;;;;;5114757;28;20479;-73
2022/01/24 03:23:13;;;;;;;5.88;3.92;;;;;;;;;;5114444;28;20030;-72
2022/01/24 03:25:40;;;;;;;5.45;4.25;;;;;;;;;;5114624;28;20059;-72
2022/01/24 03:28:06;;;;;;;5.30;4.00;;;;;;;;;;5114308;28;20031;-73
2022/01/24 03:30:33;;;;;;;5.32;4.15;;;;;;;;;;5114558;28;20016;-73
2022/01/24 03:32:59;;;;;;;5.78;4.00;;;;;;;;;;5114779;28;20490;-73
2022/01/24 03:35:26;;;;;;;4.32;3.65;;;;;;;;;;5114253;28;20027;-73
2022/01/24 03:37:52;;;;;;;5.47;4.07;;;;;;;;;;5114444;28;20020;-72
2022/01/24 03:40:18;;;;;;;4.45;3.60;;;;;;;;;;5114141;28;20038;-73
2022/01/24 03:42:44;;;;;;;4.65;3.67;;;;;;;;;;5114345;28;20024;-73
2022/01/24 03:45:11;;;;;;;4.68;3.60;;;;;;;;;;5095165;28;20521;-72
2022/01/24 03:50:05;;;;;;;3.90;3.50;;;;;;;;;;5113850;28;20478;-73
2022/01/24 03:52:32;;;;;;;4.05;3.25;;;;;;;;;;5113404;28;20108;-78
2022/01/24 03:54:58;;;;;;;5.60;4.00;;;;;;;;;;5113963;28;20023;-77
2022/01/24 03:57:25;;;;;;;5.28;3.80;;;;;;;;;;5113864;28;20164;-80
2022/01/24 03:59:51;;;;;;;4.85;4.10;;;;;;;;;;5114189;28;20015;-78
2022/01/24 04:02:19;;;;;;;6.10;4.07;;;;;;;;;;5113508;28;20027;-77
2022/01/24 04:04:45;;;;;;;4.25;3.28;;;;;;;;;;5113757;28;20376;-72
2022/01/24 04:07:11;;;;;;;4.80;3.50;;;;;;;;;;5113466;28;20030;-74
2022/01/24 04:09:39;;;;;;;4.72;3.90;;;;;;;;;;5113851;28;20115;-73
2022/01/24 04:12:07;;;;;;;5.35;3.78;;;;;;;;;;5095182;28;20031;-77
2022/01/24 04:14:53;;;;;;;5.40;4.05;;;;;;;;;;5113702;28;20031;-72
2022/01/24 04:22:19;;;;;;;4.30;3.85;;;;;;;;;;5113356;28;20063;-74
2022/01/24 04:24:46;;;;;;;6.10;4.22;;;;;;;;;;5112174;28;20020;-79
2022/01/24 04:27:15;;;;;;;5.70;4.10;;;;;;;;;;5113339;28;20107;-79
2022/01/24 04:29:42;;;;;;;4.97;3.65;;;;;;;;;;5113374;28;20062;-77
2022/01/24 04:32:09;;;;;;;5.43;3.75;;;;;;;;;;5113376;28;20490;-77
2022/01/24 04:34:35;;;;;;;5.75;4.07;;;;;;;;;;5113132;28;20506;-76
2022/01/24 04:37:01;;;;;;;4.70;3.50;;;;;;;;;;5113480;28;20023;-75
2022/01/24 04:39:28;;;;;;;5.22;3.97;;;;;;;;;;5113112;28;20118;-75
2022/01/24 04:41:56;;;;;;;5.72;4.03;;;;;;;;;;5113118;28;20047;-72
2022/01/24 04:44:50;;;;;;;4.30;3.72;;;;;;;;;;5112643;28;20039;-73
2022/01/24 04:52:47;;;;;;;4.22;3.38;;;;;;;;;;5112971;28;20077;-72
2022/01/24 04:55:13;;;;;;;5.15;3.50;;;;;;;;;;5112498;28;20028;-74
2022/01/24 04:57:39;;;;;;;4.72;3.63;;;;;;;;;;5112865;28;20069;-75
2022/01/24 05:00:08;;;;;;;5.50;4.07;;;;;;;;;;5094450;28;20019;-72
2022/01/24 05:02:34;;;;;;;5.18;3.80;;;;;;;;;;5094100;28;20023;-73
2022/01/24 05:05:00;;;;;;;4.00;3.13;;;;;;;;;;5094641;28;20031;-72
2022/01/24 05:07:26;;;;;;;5.00;3.88;;;;;;;;;;5093968;28;20028;-73
2022/01/24 05:21:21;;;;;;;5.30;3.75;;;;;;;;;;5112200;28;20030;-72
2022/01/24 05:23:39;;;;;;;5.40;4.03;;;;;;;;;;5112469;28;20079;-72
2022/01/24 05:26:07;;;;;;;5.82;4.10;;;;;;;;;;5112449;28;20028;-74
2022/01/24 05:28:34;;;;;;;4.63;3.60;;;;;;;;;;5112234;28;20114;-72
2022/01/24 05:31:01;;;;;;;5.07;3.80;;;;;;;;;;5112437;28;20073;-72
2022/01/24 05:33:27;;;;;;;5.50;3.45;;;;;;;;;;5112035;28;20020;-72
2022/01/24 05:35:54;;;;;;;4.75;3.53;;;;;;;;;;5111915;28;20463;-73
2022/01/24 05:38:22;;;;;;;5.50;3.60;;;;;;;;;;5111890;28;20024;-74
2022/01/24 05:40:48;;;;;;;4.90;3.55;;;;;;;;;;5112073;28;20027;-78
2022/01/24 05:43:14;;;;;;;4.47;3.65;;;;;;;;;;5111886;28;20032;-74
2022/01/24 05:45:43;;;;;;;5.35;3.97;;;;;;;;;;5111608;28;20510;-77
2022/01/24 05:48:09;;;;;;;5.10;3.47;;;;;;;;;;5111578;28;20118;-73
2022/01/24 05:50:36;;;;;;;4.72;3.53;;;;;;;;;;5093470;28;20016;-74
2022/01/24 05:53:02;;;;;;;5.47;3.78;;;;;;;;;;5112242;28;20024;-73
2022/01/24 05:55:28;;;;;;;5.22;3.47;;;;;;;;;;5111625;28;20024;-73
2022/01/24 05:57:54;;;;;;;4.78;3.42;;;;;;;;;;5111884;28;20028;-72
2022/01/24 06:00:21;;;;;;;5.07;3.95;;;;;;;;;;5110765;28;20535;-75
2022/01/24 06:02:47;;;;;;;5.50;4.00;;;;;;;;;;5111429;28;20027;-72
2022/01/24 06:05:13;;;;;;;4.97;3.60;;;;;;;;;;5111785;28;20035;-72
2022/01/24 06:07:39;;;;;;;5.32;3.67;;;;;;;;;;5111563;28;20020;-74
2022/01/24 06:10:06;;;;;;;4.78;3.60;;;;;;;;;;5111654;28;20110;-72
2022/01/24 06:12:32;;;;;;;4.90;3.72;;;;;;;;;;5111632;28;20019;-75
2022/01/24 06:14:58;;;;;;;5.32;3.85;;;;;;;;;;5112686;28;20080;-73
2022/01/24 06:17:24;;;;;;;6.65;3.65;;;;;;;;;;5118162;28;20028;-73
2022/01/24 06:19:50;;;;;;;5.10;3.90;;;;;;;;;;5118462;28;20031;-73
2022/01/24 06:22:16;;;;;;;4.72;3.60;;;;;;;;;;5118321;28;20417;-73
2022/01/24 06:24:42;;;;;;;5.55;4.38;;;;;;;;;;5118402;28;20415;-74
2022/01/24 06:27:08;;;;;;;5.47;4.03;;;;;;;;;;5118140;28;20023;-73
2022/01/24 06:29:34;;;;;;;5.50;3.67;;;;;;;;;;5118315;28;20059;-72
2022/01/24 06:32:00;;;;;;;4.75;3.53;;;;;;;;;;5118713;28;20028;-72
2022/01/24 06:34:26;;;;;;;6.05;3.90;;;;;;;;;;5099571;28;20023;-73
2022/01/24 06:36:52;;;;;;;5.88;4.30;;;;;;;;;;5118280;28;20020;-73
2022/01/24 06:39:18;;;;;;;6.72;4.28;;;;;;;;;;5118110;28;20028;-73
2022/01/24 06:41:52;;;;;;;5.90;3.85;;;;;;;;;;5118114;28;20027;-75
2022/01/24 06:44:18;;;;;;;4.97;4.28;;;;;;;;;;5117940;28;20028;-73
2022/01/24 06:46:44;;;;;;;6.32;4.63;;;;;;;;;;5117614;28;20399;-72
2022/01/24 06:49:10;;;;;;;5.50;3.78;;;;;;;;;;5099947;28;20035;-73
2022/01/24 06:51:37;;;;;;;6.95;4.07;;;;;;;;;;5117713;28;20472;-72
2022/01/24 06:54:03;;;;;;;4.78;3.80;;;;;;;;;;5099562;28;20399;-72
2022/01/24 06:56:29;;;;;;;5.88;4.20;;;;;;;;;;5117305;28;20051;-73
2022/01/24 06:58:55;;;;;;;5.60;4.18;;;;;;;;;;5117942;28;20020;-73
2022/01/24 07:01:21;;;;;;;5.97;4.53;;;;;;;;;;5117681;28;20032;-72
2022/01/24 07:03:47;;;;;;;6.95;4.47;;;;;;;;;;5117865;28;20514;-72
2022/01/24 07:06:13;;;;;;;6.03;4.38;;;;;;;;;;5117917;28;20027;-73
2022/01/24 07:08:39;;;;;;;7.32;4.47;;;;;;;;;;5117780;28;20030;-72
2022/01/24 07:11:06;;;;;;;5.43;4.32;;;;;;;;;;5117794;28;20019;-72
2022/01/24 07:13:32;;;;;;;5.22;4.28;;;;;;;;;;5117873;28;20046;-73
2022/01/24 07:16:03;;;;;;;6.57;4.38;;;;;;;;;;5117459;28;20107;-72
2022/01/24 07:20:56;;;;;;;7.82;4.43;;;;;;;;;;5117675;28;20032;-72
2022/01/24 07:23:22;;;;;;;6.60;5.20;;;;;;;;;;5099524;27;20023;-77
2022/01/24 07:25:48;;;;;;;6.60;4.82;;;;;;;;;;5120590;27;20027;-73
2022/01/24 07:28:15;;;;;;;6.43;4.47;;;;;;;;;;5111446;27;20038;-73
2022/01/24 07:30:41;;;;;;;7.20;4.13;;;;;;;;;;5113206;27;20024;-78
2022/01/24 07:33:07;;;;;;;5.85;4.47;;;;;;;;;;5114221;28;20554;-79
2022/01/24 07:35:34;;;;;;;8.30;4.10;;;;;;;;;;5114681;28;20042;-80
2022/01/24 07:38:00;;;;;;;9.15;5.18;;;;;;;;;;5114401;28;20028;-79
2022/01/24 07:40:26;;;;;;;5.85;4.90;;;;;;;;;;5113777;28;20486;-79
2022/01/24 07:43:08;;;;;;;7.15;4.10;;;;;;;;;;5096418;28;20019;-80
2022/01/24 07:45:34;;;;;;;7.15;4.57;;;;;;;;;;5112825;28;20524;-79
2022/01/24 07:48:00;;;;;;;6.03;4.57;;;;;;;;;;5113574;28;20023;-79
2022/01/24 07:50:27;;;;;;;6.78;4.40;;;;;;;;;;5095369;28;20028;-83
2022/01/24 07:52:53;;;;;;;8.05;5.57;;;;;;;;;;5096068;28;20143;-86
2022/01/24 07:55:19;;;;;;;7.70;4.93;;;;;;;;;;5113507;28;20111;-83
2022/01/24 07:57:45;;;;;;;7.95;5.13;;;;;;;;;;5095883;28;20031;-82
2022/01/24 08:00:12;;;;;;;7.88;4.40;;;;;;;;;;5112919;28;20037;-77
2022/01/24 08:02:38;;;;;;;9.55;5.43;;;;;;;;;;5112450;28;20387;-74
2022/01/24 08:05:05;;;;;;;7.00;4.90;;;;;;;;;;5112686;28;20016;-79
2022/01/24 08:07:31;;;;;;;7.28;4.95;;;;;;;;;;5093704;28;20391;-74
2022/01/24 08:09:57;;;;;;;7.88;5.18;;;;;;;;;;5093971;28;20838;-75
2022/01/24 08:12:24;;;;;;;5.85;4.63;;;;;;;;;;5112069;28;20023;-78
2022/01/24 08:14:50;;;;;;;7.07;4.63;;;;;;;;;;5113422;28;20031;-81
2022/01/24 08:17:16;;;;;;;8.77;5.05;;;;;;;;;;5112879;28;20031;-74
2022/01/24 08:19:42;;;;;;;5.75;4.13;;;;;;;;;;5113595;28;20031;-73
2022/01/24 08:22:08;;;;;;;10.57;5.75;;;;;;;;;;5112984;28;20023;-75
2022/01/24 08:24:34;;;;;;;7.20;4.63;;;;;;;;;;5111755;28;20038;-76
2022/01/24 08:27:00;;;;;;;7.50;4.97;;;;;;;;;;5112513;28;20020;-78
2022/01/24 08:29:26;;;;;;;6.95;5.05;;;;;;;;;;5113220;28;20475;-75
2022/01/24 08:31:52;;;;;;;7.07;4.70;;;;;;;;;;5113338;28;20054;-75
2022/01/24 08:34:18;;;;;;;9.38;5.72;;;;;;;;;;5093923;28;20039;-74
2022/01/24 08:36:46;;;;;;;6.78;5.05;;;;;;;;;;5113150;28;20023;-76
2022/01/24 08:39:13;;;;;;;6.90;5.03;;;;;;;;;;5112732;28;20034;-72
2022/01/24 08:41:58;;;;;;;7.68;4.80;;;;;;;;;;5112961;28;20078;-74
2022/01/24 08:45:43;;;;;;;6.63;4.63;;;;;;;;;;5112504;28;20031;-78
2022/01/24 08:47:19;;;;;;;7.38;4.88;;;;;;;;;;5112375;28;20028;-73
2022/01/24 08:49:45;;;;;;;7.78;4.85;;;;;;;;;;5113148;28;20031;-83
2022/01/24 08:52:11;;;;;;;9.15;5.13;;;;;;;;;;5094846;28;20499;-73
2022/01/24 08:54:37;;;;;;;6.03;4.28;;;;;;;;;;5113193;28;20029;-79
2022/01/24 08:57:04;;;;;;;8.48;5.45;;;;;;;;;;5094418;28;20064;-73
2022/01/24 08:59:33;;;;;;;7.72;4.93;;;;;;;;;;5112845;28;20035;-77
2022/01/24 09:02:00;;;;;;;10.48;5.10;;;;;;;;;;5112976;28;20023;-72
2022/01/24 09:04:26;;;;;;;6.28;4.95;;;;;;;;;;5112382;28;20434;-73
2022/01/24 09:06:52;;;;;;;7.53;5.43;;;;;;;;;;5112715;28;20429;-71
2022/01/24 09:09:19;;;;;;;7.78;5.20;;;;;;;;;;5112352;28;20035;-72
2022/01/24 09:11:46;;;;;;;7.97;5.20;;;;;;;;;;5112600;28;20042;-73
2022/01/24 09:14:12;;;;;;;7.15;5.18;;;;;;;;;;5112321;28;20027;-72
2022/01/24 09:16:38;;;;;;;8.27;5.15;;;;;;;;;;5093825;28;20031;-73
2022/01/24 09:19:05;;;;;;;7.78;5.55;;;;;;;;;;5112426;28;20016;-72
2022/01/24 09:21:31;;;;;;;7.70;5.28;;;;;;;;;;5112132;28;20035;-72
2022/01/24 09:23:57;;;;;;;7.53;4.85;;;;;;;;;;5112410;28;20019;-73
2022/01/24 09:26:23;;;;;;;8.80;5.15;;;;;;;;;;5112071;28;20023;-72
2022/01/24 09:28:49;;;;;;;9.80;6.20;;;;;;;;;;5112170;28;20039;-72
2022/01/24 09:31:15;;;;;;;9.18;6.15;;;;;;;;;;5111997;28;20027;-72
2022/01/24 09:33:42;;;;;;;9.55;6.07;;;;;;;;;;5112065;28;20024;-73
2022/01/24 09:36:08;;;;;;;8.45;5.57;;;;;;;;;;5094032;28;20039;-73
2022/01/24 09:38:36;;;;;;;8.68;5.57;;;;;;;;;;5111799;28;20030;-72
2022/01/24 09:41:04;;;;;;;7.97;5.28;;;;;;;;;;5112070;28;20069;-72
2022/01/24 09:43:30;;;;;;;8.27;5.80;;;;;;;;;;5111647;28;20518;-72
2022/01/24 09:45:56;;;;;;;7.85;5.55;;;;;;;;;;5111185;28;20024;-72
2022/01/24 09:48:22;;;;;;;8.52;6.30;;;;;;;;;;5111616;28;20122;-73
2022/01/24 09:50:52;;;;;;;8.32;5.53;;;;;;;;;;5092707;28;20027;-72
2022/01/24 09:53:19;;;;;;;9.68;6.28;;;;;;;;;;5111604;28;20407;-72
2022/01/24 09:55:45;;;;;;;7.95;5.78;;;;;;;;;;5093528;28;20023;-72
2022/01/24 09:58:12;;;;;;;9.98;6.38;;;;;;;;;;5111821;28;20027;-73
2022/01/24 10:00:38;;;;;;;9.82;6.25;;;;;;;;;;5111887;28;20054;-72
2022/01/24 10:03:05;;;;;;;8.63;6.32;;;;;;;;;;5111835;28;20077;-72
2022/01/24 10:05:37;;;;;;;12.70;6.78;;;;;;;;;;5111535;28;20024;-72
2022/01/24 10:08:05;;;;;;;9.50;6.63;;;;;;;;;;5111610;28;20115;-73
2022/01/24 10:10:47;;;;;;;9.93;6.40;;;;;;;;;;5093187;28;20028;-73
2022/01/24 10:16:25;;;;;;;10.80;6.30;;;;;;;;;;5111107;28;20084;-72
2022/01/24 10:18:57;;;;;;;10.50;6.80;;;;;;;;;;5111668;28;20027;-74
2022/01/24 10:21:24;;;;;;;8.77;6.85;;;;;;;;;;5111365;28;20028;-72
2022/01/24 10:23:50;;;;;;;10.57;6.70;;;;;;;;;;5111617;28;20024;-75
2022/01/24 10:26:16;;;;;;;8.73;6.28;;;;;;;;;;5111132;28;20027;-72
2022/01/24 10:28:43;;;;;;;10.00;6.30;;;;;;;;;;5111438;28;20036;-73
2022/01/24 10:31:18;;;;;;;10.68;7.05;;;;;;;;;;5111801;28;20020;-72
2022/01/24 10:34:12;;;;;;;10.50;6.68;;;;;;;;;;5111348;28;20046;-74
2022/01/24 10:36:41;;;;;;;9.15;6.28;;;;;;;;;;5093223;28;20116;-72
2022/01/24 10:39:10;;;;;;;11.85;6.55;;;;;;;;;;5093530;28;20383;-72
2022/01/24 10:41:54;;;;;;;9.93;7.03;;;;;;;;;;5111345;28;20028;-72
2022/01/24 10:44:33;;;;;;;9.00;6.60;;;;;;;;;;5110654;28;20032;-74
2022/01/24 10:47:18;;;;;;;9.98;6.57;;;;;;;;;;5110445;28;20587;-72
2022/01/24 10:49:45;;;;;;;9.68;5.55;;;;;;;;;;5090943;28;20031;-72
2022/01/24 10:52:12;;;;;;;8.40;6.22;;;;;;;;;;5091047;28;20046;-73
2022/01/24 10:54:39;;;;;;;9.27;5.95;;;;;;;;;;5090981;28;20024;-72
2022/01/24 10:57:05;;;;;;;10.38;6.25;;;;;;;;;;5091036;28;20429;-75
2022/01/24 10:59:31;;;;;;;11.05;6.20;;;;;;;;;;5072442;28;20089;-77
2022/01/24 11:01:58;;;;;;;8.45;5.43;;;;;;;;;;5092793;28;20049;-76
2022/01/24 11:04:26;;;;;;;6.90;5.15;;;;;;;;;;5094557;28;20479;-74
2022/01/24 11:06:57;;;;;;;9.27;6.70;;;;;;;;;;5094669;28;20031;-73
2022/01/24 11:09:26;;;;;;;8.00;5.30;;;;;;;;;;5094534;28;20380;-74
2022/01/24 11:12:10;;;;;;;9.63;6.30;;;;;;;;;;5095005;28;20024;-75
2022/01/24 11:14:38;;;;;;;10.93;6.32;;;;;;;;;;5099144;28;20372;-73
2022/01/24 11:17:05;;;;;;;11.90;7.30;;;;;;;;;;5096852;28;20420;-74
2022/01/24 11:22:01;;;;;;;19.23;6.80;;;;;;;;;;5113301;28;20475;-80
2022/01/24 11:24:38;;;;;;;18.67;7.15;;;;;;;;;;5113278;28;20098;-76
2022/01/24 11:27:05;;;;;;;14.25;6.30;;;;;;;;;;5115960;28;20567;-77
2022/01/24 11:29:31;;;;;;;11.77;7.10;;;;;;;;;;5114489;28;20040;-82
2022/01/24 11:32:16;;;;;;;15.35;8.52;;;;;;;;;;5114856;28;20115;-82
2022/01/24 11:34:47;;;;;;;17.40;9.40;;;;;;;;;;5096325;28;20027;-75
2022/01/24 11:37:30;;;;;;;22.13;11.85;;;;;;;;;;5114607;28;20019;-82
2022/01/24 11:39:56;;;;;;;19.38;11.05;;;;;;;;;;5115013;28;20011;-81
2022/01/24 11:42:30;;;;;;;19.95;10.93;;;;;;;;;;5114317;28;20027;-83
2022/01/24 11:44:59;;;;;;;23.83;12.68;;;;;;;;;;5113730;28;20015;-78
2022/01/24 11:47:26;;;;;;;21.95;11.10;;;;;;;;;;5114131;28;20032;-74
2022/01/24 11:49:53;;;;;;;23.50;10.55;;;;;;;;;;5114051;28;20034;-75
2022/01/24 11:52:20;;;;;;;18.50;9.63;;;;;;;;;;5113783;28;20038;-73
2022/01/24 11:55:02;;;;;;;22.63;10.93;;;;;;;;;;5114305;28;20031;-73
2022/01/24 11:57:28;;;;;;;18.55;8.75;;;;;;;;;;5113916;28;20139;-75
2022/01/24 12:00:07;;;;;;;19.13;9.52;;;;;;;;;;5113819;28;20458;-72
2022/01/24 12:02:38;;;;;;;15.93;8.15;;;;;;;;;;5113702;28;20032;-72
2022/01/24 12:05:14;;;;;;;20.80;8.30;;;;;;;;;;5113818;28;20024;-72
2022/01/24 12:07:47;;;;;;;14.45;7.82;;;;;;;;;;5114342;28;20027;-72
2022/01/24 12:10:58;;;;;;;13.63;7.60;;;;;;;;;;5113859;28;20380;-73
2022/01/24 12:13:27;;;;;;;13.55;7.60;;;;;;;;;;5108189;28;20028;-73
2022/01/24 12:15:55;;;;;;;17.42;8.07;;;;;;;;;;5113411;28;20058;-72
2022/01/24 12:18:45;;;;;;;14.32;8.05;;;;;;;;;;5113526;28;20027;-72
2022/01/24 12:21:13;;;;;;;14.50;8.60;;;;;;;;;;5105818;28;20063;-73
2022/01/24 12:23:39;;;;;;;15.35;7.75;;;;;;;;;;5113394;28;20786;-72
2022/01/24 12:26:08;;;;;;;11.93;7.43;;;;;;;;;;5113478;28;20054;-73
2022/01/24 12:28:57;;;;;;;13.52;8.00;;;;;;;;;;5113177;28;20043;-73
2022/01/24 12:31:23;;;;;;;16.08;7.70;;;;;;;;;;5113444;28;20019;-73
2022/01/24 12:33:55;;;;;;;13.05;7.88;;;;;;;;;;5113367;28;20454;-73
2022/01/24 12:36:46;;;;;;;16.92;7.45;;;;;;;;;;5113138;28;20099;-73
2022/01/24 12:39:17;;;;;;;15.48;7.53;;;;;;;;;;5113671;28;20506;-78
2022/01/24 12:41:49;;;;;;;16.27;7.30;;;;;;;;;;5113890;28;20034;-81
2022/01/24 12:47:01;;;;;;;10.35;6.75;;;;;;;;;;5112898;28;20122;-75
2022/01/24 12:49:30;;;;;;;12.63;7.95;;;;;;;;;;5113814;28;20035;-73
2022/01/24 12:52:00;;;;;;;11.50;7.05;;;;;;;;;;5113713;28;20051;-78
2022/01/24 12:54:33;;;;;;;12.18;6.93;;;;;;;;;;5113286;28;20039;-76
2022/01/24 12:57:05;;;;;;;11.63;7.30;;;;;;;;;;5112633;28;20051;-75
2022/01/24 12:59:31;;;;;;;12.10;7.00;;;;;;;;;;5112355;28;20375;-73
2022/01/24 13:02:00;;;;;;;15.15;8.13;;;;;;;;;;5112673;28;20081;-75
2022/01/24 13:04:32;;;;;;;12.38;7.38;;;;;;;;;;5112829;28;20023;-73
2022/01/24 13:06:59;;;;;;;16.63;7.03;;;;;;;;;;5112522;28;20128;-73
2022/01/24 13:09:25;;;;;;;13.23;6.80;;;;;;;;;;5112342;28;20564;-73
2022/01/24 13:11:53;;;;;;;16.38;7.20;;;;;;;;;;5112614;28;20038;-72
2022/01/24 13:14:25;;;;;;;17.85;6.32;;;;;;;;;;5112150;28;20048;-81
2022/01/24 13:22:33;;;;;;;9.98;6.20;;;;;;;;;;5113688;28;19910;-75
2022/01/24 13:25:02;;;;;;;10.55;6.45;;;;;;;;;;5111764;28;20038;-75
2022/01/24 13:27:43;;;;;;;11.38;6.07;;;;;;;;;;5095824;28;20032;-79
2022/01/24 13:30:11;;;;;;;10.32;6.38;;;;;;;;;;5113068;28;20114;-85
2022/01/24 13:32:48;;;;;;;10.52;6.07;;;;;;;;;;5112743;28;20087;-75
2022/01/24 13:35:19;;;;;;;11.32;6.60;;;;;;;;;;5112612;28;20020;-77
2022/01/24 13:37:45;;;;;;;10.57;6.43;;;;;;;;;;5112648;28;20030;-80
2022/01/24 13:40:12;;;;;;;10.88;6.47;;;;;;;;;;5113176;28;20020;-74
2022/01/24 13:42:38;;;;;;;9.32;5.85;;;;;;;;;;5112106;28;20099;-74
2022/01/24 13:45:05;;;;;;;8.57;5.70;;;;;;;;;;5111868;28;20397;-93
2022/01/24 13:47:31;;;;;;;11.40;6.75;;;;;;;;;;5112339;28;20380;-74
2022/01/24 13:49:57;;;;;;;11.10;6.82;;;;;;;;;;5112140;28;20031;-74
2022/01/24 13:52:28;;;;;;;12.85;7.05;;;;;;;;;;5112186;28;20020;-77
2022/01/24 13:54:54;;;;;;;11.13;6.50;;;;;;;;;;5112111;28;20023;-83
2022/01/24 13:57:20;;;;;;;11.30;6.35;;;;;;;;;;5112040;28;20020;-73
2022/01/24 13:59:46;;;;;;;9.50;6.50;;;;;;;;;;5112293;28;20027;-73
2022/01/24 14:02:15;;;;;;;14.30;6.70;;;;;;;;;;5113244;28;20023;-77
2022/01/24 14:04:49;;;;;;;8.27;5.93;;;;;;;;;;5113062;28;20023;-79
2022/01/24 14:07:16;;;;;;;11.82;6.55;;;;;;;;;;5094526;28;20032;-75
2022/01/24 14:09:45;;;;;;;9.73;5.80;;;;;;;;;;5111888;28;20035;-73
2022/01/24 14:12:16;;;;;;;11.65;6.85;;;;;;;;;;5112672;28;20081;-73
2022/01/24 14:14:47;;;;;;;11.27;5.95;;;;;;;;;;5111868;28;20024;-73
2022/01/24 14:19:42;;;;;;;9.13;6.18;;;;;;;;;;5112171;28;20027;-73
2022/01/24 14:22:11;;;;;;;8.63;5.43;;;;;;;;;;5111636;28;20406;-73
2022/01/24 14:25:03;;;;;;;11.10;6.10;;;;;;;;;;5111253;28;20077;-83
2022/01/24 14:27:48;;;;;;;11.27;6.78;;;;;;;;;;5076449;28;20036;-73
2022/01/24 14:30:22;;;;;;;10.60;6.18;;;;;;;;;;5112767;28;20055;-74
2022/01/24 14:33:03;;;;;;;11.10;5.78;;;;;;;;;;5112843;28;20027;-75
2022/01/24 14:35:30;;;;;;;9.85;6.10;;;;;;;;;;5112999;28;20108;-74
2022/01/24 14:37:58;;;;;;;9.75;6.40;;;;;;;;;;5115356;28;20023;-74
2022/01/24 14:41:01;;;;;;;8.95;5.97;;;;;;;;;;5115957;28;20031;-74
2022/01/24 14:46:13;;;;;;;9.90;6.25;;;;;;;;;;5115759;28;20039;-72
2022/01/24 14:48:50;;;;;;;9.70;6.22;;;;;;;;;;5115692;28;20505;-72
2022/01/24 14:51:18;;;;;;;10.85;6.15;;;;;;;;;;5115365;28;20016;-72
2022/01/24 14:53:45;;;;;;;9.95;5.85;;;;;;;;;;5115408;28;20034;-73
2022/01/24 14:56:14;;;;;;;9.88;5.50;;;;;;;;;;5115840;28;20467;-73
2022/01/24 14:58:40;;;;;;;8.85;5.63;;;;;;;;;;5115804;28;20490;-73
2022/01/24 15:01:06;;;;;;;10.13;6.55;;;;;;;;;;5115152;28;20103;-72
2022/01/24 15:03:32;;;;;;;8.73;5.93;;;;;;;;;;5115179;28;20023;-72
2022/01/24 15:06:00;;;;;;;10.68;5.53;;;;;;;;;;5115951;28;20544;-73
2022/01/24 15:08:27;;;;;;;10.68;6.07;;;;;;;;;;5115357;28;20031;-73
2022/01/24 15:10:53;;;;;;;8.60;5.18;;;;;;;;;;5115413;28;20068;-77
2022/01/24 15:13:23;;;;;;;9.10;6.40;;;;;;;;;;5098801;28;20407;-74
2022/01/24 15:16:03;;;;;;;8.68;5.88;;;;;;;;;;5118693;28;20065;-75
2022/01/24 15:24:22;;;;;;;8.27;5.47;;;;;;;;;;5125122;28;20034;-93
2022/01/24 15:26:45;;;;;;;8.25;5.10;;;;;;;;;;5117084;28;20038;-74
2022/01/24 15:29:11;;;;;;;8.63;5.15;;;;;;;;;;5121872;28;20036;-92
2022/01/24 15:31:37;;;;;;;7.95;5.10;;;;;;;;;;5115686;28;20020;-93
2022/01/24 15:34:03;;;;;;;6.50;4.95;;;;;;;;;;5123246;28;20024;-93
2022/01/24 15:36:29;;;;;;;9.68;5.45;;;;;;;;;;5126871;28;20028;-93
2022/01/24 15:38:59;;;;;;;6.82;5.07;;;;;;;;;;5122903;28;20027;-91
2022/01/24 15:41:25;;;;;;;7.50;5.10;;;;;;;;;;5115166;28;20046;-92
2022/01/24 15:48:43;;;;;;;8.70;5.65;;;;;;;;;;5118148;28;20039;-83
2022/01/24 15:51:12;;;;;;;7.80;5.70;;;;;;;;;;5116113;28;20015;-81
2022/01/24 15:53:43;;;;;;;6.22;4.22;;;;;;;;;;5114828;28;20023;-81
2022/01/24 15:56:16;;;;;;;8.18;5.32;;;;;;;;;;5115010;28;20025;-79
2022/01/24 15:58:42;;;;;;;8.65;4.70;;;;;;;;;;5096424;28;20452;-87
2022/01/24 16:01:08;;;;;;;7.47;4.90;;;;;;;;;;5114073;28;20035;-73
2022/01/24 16:03:34;;;;;;;7.38;4.93;;;;;;;;;;5113964;28;20342;-72
2022/01/24 16:06:00;;;;;;;8.27;5.22;;;;;;;;;;5114492;28;20027;-73
2022/01/24 16:08:26;;;;;;;7.10;5.20;;;;;;;;;;5095656;28;20477;-77
2022/01/24 16:10:52;;;;;;;7.03;4.93;;;;;;;;;;5114102;28;20506;-77
2022/01/24 16:13:21;;;;;;;8.85;4.97;;;;;;;;;;5113030;28;20024;-74
2022/01/24 16:15:47;;;;;;;7.55;5.55;;;;;;;;;;5113850;28;20019;-74
2022/01/24 16:18:15;;;;;;;7.32;5.15;;;;;;;;;;5114145;28;20027;-72
2022/01/24 16:23:31;;;;;;;9.20;5.82;;;;;;;;;;5113485;28;20395;-77
2022/01/24 16:25:57;;;;;;;6.50;4.65;;;;;;;;;;5113803;28;20078;-74
2022/01/24 16:28:25;;;;;;;9.02;5.15;;;;;;;;;;5095014;28;20441;-76
2022/01/24 16:31:02;;;;;;;6.75;4.88;;;;;;;;;;5095687;28;20031;-75
2022/01/24 16:33:29;;;;;;;7.85;4.88;;;;;;;;;;5113195;28;20408;-76
2022/01/24 16:35:57;;;;;;;7.22;5.28;;;;;;;;;;5113332;28;20034;-76
2022/01/24 16:38:25;;;;;;;9.65;4.95;;;;;;;;;;5113345;28;20015;-77
2022/01/24 16:40:58;;;;;;;7.30;4.53;;;;;;;;;;5113491;28;20058;-80
2022/01/24 16:48:32;;;;;;;;;;;;;;;;;;5113348;28;20039;-73
2022/01/24 16:50:58;;;;;;;9.57;5.32;;;;;;;;;;5094506;28;19907;-73
2022/01/24 16:53:24;;;;;;;8.77;5.68;;;;;;;;;;5112442;28;20032;-72
2022/01/24 16:55:52;;;;;;;6.90;5.00;;;;;;;;;;5094705;28;20016;-72
2022/01/24 16:58:18;;;;;;;6.43;4.57;;;;;;;;;;5112471;28;20023;-72
2022/01/24 17:00:45;;;;;;;7.70;4.88;;;;;;;;;;5112519;28;20026;-73
2022/01/24 17:03:11;;;;;;;6.75;5.10;;;;;;;;;;5113278;28;20149;-76